sensor_id;sensor_type;location;lat;lon;timestamp;temperature;humidity
12049;DHT22;6085;49.452;8.502;2023-05-07T00:04:00;14.50;99.90
12049;DHT22;6085;49.452;8.502;2023-05-07T00:08:04;14.40;99.90
12049;DHT22;6085;49.452;8.502;2023-05-07T00:12:07;14.40;99.90
12049;DHT22;6085;49.452;8.502;2023-05-07T00:16:09;14.40;99.90
12049;DHT22;6085;49.452;8.502;2023-05-07T00:20:11;14.40;99.90
12049;DHT22;6085;49.452;8.502;2023-05-07T00:24:14;14.30;99.90
12049;DHT22;6085;49.452;8.502;2023-05-07T00:28:17;14.20;99.90
12049;DHT22;6085;49.452;8.502;2023-05-07T00:32:19;14.20;99.90
12049;DHT22;6085;49.452;8.502;2023-05-07T00:36:21;14.20;99.90
12049;DHT22;6085;49.452;8.502;2023-05-07T00:40:25;14.20;99.90
12049;DHT22;6085;49.452;8.502;2023-05-07T00:44:27;14.20;99.90
12049;DHT22;6085;49.452;8.502;2023-05-07T00:48:30;14.10;99.90
12049;DHT22;6085;49.452;8.502;2023-05-07T00:52:32;14.00;99.90
12049;DHT22;6085;49.452;8.502;2023-05-07T00:56:36;13.90;99.90
12049;DHT22;6085;49.452;8.502;2023-05-07T01:00:39;13.80;99.90
12049;DHT22;6085;49.452;8.502;2023-05-07T01:04:41;13.70;99.90
12049;DHT22;6085;49.452;8.502;2023-05-07T01:08:44;13.60;99.90
12049;DHT22;6085;49.452;8.502;2023-05-07T01:12:49;13.50;99.90
12049;DHT22;6085;49.452;8.502;2023-05-07T01:16:52;13.40;99.90
12049;DHT22;6085;49.452;8.502;2023-05-07T01:20:55;13.30;99.90
12049;DHT22;6085;49.452;8.502;2023-05-07T01:24:59;13.20;99.90
12049;DHT22;6085;49.452;8.502;2023-05-07T01:29:02;13.20;99.90
12049;DHT22;6085;49.452;8.502;2023-05-07T01:33:08;13.20;99.90
12049;DHT22;6085;49.452;8.502;2023-05-07T01:37:10;13.20;99.90
12049;DHT22;6085;49.452;8.502;2023-05-07T01:41:14;13.30;99.90
12049;DHT22;6085;49.452;8.502;2023-05-07T01:45:16;13.20;99.90
12049;DHT22;6085;49.452;8.502;2023-05-07T01:49:18;13.20;99.90
12049;DHT22;6085;49.452;8.502;2023-05-07T01:53:20;13.10;99.90
12049;DHT22;6085;49.452;8.502;2023-05-07T01:57:23;13.00;99.90
12049;DHT22;6085;49.452;8.502;2023-05-07T02:01:25;12.90;99.90
12049;DHT22;6085;49.452;8.502;2023-05-07T02:05:27;12.90;99.90
12049;DHT22;6085;49.452;8.502;2023-05-07T02:09:29;12.90;99.90
12049;DHT22;6085;49.452;8.502;2023-05-07T02:13:33;12.80;99.90
12049;DHT22;6085;49.452;8.502;2023-05-07T02:17:39;12.70;99.90
12049;DHT22;6085;49.452;8.502;2023-05-07T02:21:59;12.60;99.90
12049;DHT22;6085;49.452;8.502;2023-05-07T02:26:01;12.60;99.90
12049;DHT22;6085;49.452;8.502;2023-05-07T02:30:05;12.50;99.90
12049;DHT22;6085;49.452;8.502;2023-05-07T02:34:08;12.50;99.90
12049;DHT22;6085;49.452;8.502;2023-05-07T02:38:09;12.50;99.90
12049;DHT22;6085;49.452;8.502;2023-05-07T02:42:11;12.40;99.90
12049;DHT22;6085;49.452;8.502;2023-05-07T02:46:15;12.40;99.90
12049;DHT22;6085;49.452;8.502;2023-05-07T02:50:17;12.40;99.90
12049;DHT22;6085;49.452;8.502;2023-05-07T02:54:19;12.40;99.90
12049;DHT22;6085;49.452;8.502;2023-05-07T02:58:21;12.50;99.90
12049;DHT22;6085;49.452;8.502;2023-05-07T03:02:24;12.40;99.90
12049;DHT22;6085;49.452;8.502;2023-05-07T03:06:26;12.40;99.90
12049;DHT22;6085;49.452;8.502;2023-05-07T03:10:28;12.30;99.90
12049;DHT22;6085;49.452;8.502;2023-05-07T03:14:30;12.30;99.90
12049;DHT22;6085;49.452;8.502;2023-05-07T03:18:33;12.30;99.90
12049;DHT22;6085;49.452;8.502;2023-05-07T03:22:35;12.20;99.90
12049;DHT22;6085;49.452;8.502;2023-05-07T03:26:37;12.20;99.90
12049;DHT22;6085;49.452;8.502;2023-05-07T03:30:39;12.20;99.90
12049;DHT22;6085;49.452;8.502;2023-05-07T03:34:42;12.20;99.90
12049;DHT22;6085;49.452;8.502;2023-05-07T03:38:45;12.20;99.90
12049;DHT22;6085;49.452;8.502;2023-05-07T03:42:47;12.20;99.90
12049;DHT22;6085;49.452;8.502;2023-05-07T03:46:49;12.10;99.90
12049;DHT22;6085;49.452;8.502;2023-05-07T03:50:52;12.20;99.90
12049;DHT22;6085;49.452;8.502;2023-05-07T03:54:54;12.10;99.90
12049;DHT22;6085;49.452;8.502;2023-05-07T03:58:56;12.10;99.90
12049;DHT22;6085;49.452;8.502;2023-05-07T04:02:58;12.10;99.90
12049;DHT22;6085;49.452;8.502;2023-05-07T04:07:01;12.10;99.90
12049;DHT22;6085;49.452;8.502;2023-05-07T04:11:03;12.00;99.90
12049;DHT22;6085;49.452;8.502;2023-05-07T04:15:06;12.00;99.90
12049;DHT22;6085;49.452;8.502;2023-05-07T04:19:08;12.10;99.90
12049;DHT22;6085;49.452;8.502;2023-05-07T04:23:11;12.10;99.90
12049;DHT22;6085;49.452;8.502;2023-05-07T04:27:13;12.10;99.90
12049;DHT22;6085;49.452;8.502;2023-05-07T04:31:15;12.20;99.90
12049;DHT22;6085;49.452;8.502;2023-05-07T04:35:17;12.30;99.90
12049;DHT22;6085;49.452;8.502;2023-05-07T04:39:20;12.40;99.90
12049;DHT22;6085;49.452;8.502;2023-05-07T04:43:23;12.60;99.90
12049;DHT22;6085;49.452;8.502;2023-05-07T04:47:25;12.90;99.90
12049;DHT22;6085;49.452;8.502;2023-05-07T04:51:27;13.20;99.90
12049;DHT22;6085;49.452;8.502;2023-05-07T04:55:31;13.50;99.90
12049;DHT22;6085;49.452;8.502;2023-05-07T04:59:33;13.80;99.90
12049;DHT22;6085;49.452;8.502;2023-05-07T05:03:34;14.10;99.90
12049;DHT22;6085;49.452;8.502;2023-05-07T05:07:36;14.30;99.90
12049;DHT22;6085;49.452;8.502;2023-05-07T05:11:40;14.50;99.90
12049;DHT22;6085;49.452;8.502;2023-05-07T05:15:42;14.70;99.90
12049;DHT22;6085;49.452;8.502;2023-05-07T05:19:44;14.90;99.90
12049;DHT22;6085;49.452;8.502;2023-05-07T05:23:46;15.10;99.90
12049;DHT22;6085;49.452;8.502;2023-05-07T05:27:49;15.30;99.90
12049;DHT22;6085;49.452;8.502;2023-05-07T05:31:51;15.50;99.90
12049;DHT22;6085;49.452;8.502;2023-05-07T05:35:53;15.70;99.90
12049;DHT22;6085;49.452;8.502;2023-05-07T05:39:55;16.00;99.90
12049;DHT22;6085;49.452;8.502;2023-05-07T05:43:59;16.20;99.90
12049;DHT22;6085;49.452;8.502;2023-05-07T05:48:00;16.30;99.90
12049;DHT22;6085;49.452;8.502;2023-05-07T05:52:03;16.30;99.90
12049;DHT22;6085;49.452;8.502;2023-05-07T05:56:05;16.40;99.90
12049;DHT22;6085;49.452;8.502;2023-05-07T06:00:10;16.60;99.90
12049;DHT22;6085;49.452;8.502;2023-05-07T06:04:12;17.00;99.90
12049;DHT22;6085;49.452;8.502;2023-05-07T06:08:14;17.30;99.90
12049;DHT22;6085;49.452;8.502;2023-05-07T06:12:16;17.70;99.90
12049;DHT22;6085;49.452;8.502;2023-05-07T06:16:19;18.10;99.90
12049;DHT22;6085;49.452;8.502;2023-05-07T06:20:21;18.20;99.90
12049;DHT22;6085;49.452;8.502;2023-05-07T06:24:24;18.30;99.90
12049;DHT22;6085;49.452;8.502;2023-05-07T06:28:26;18.50;99.90
12049;DHT22;6085;49.452;8.502;2023-05-07T06:32:29;18.70;99.90
12049;DHT22;6085;49.452;8.502;2023-05-07T06:36:31;18.90;99.90
12049;DHT22;6085;49.452;8.502;2023-05-07T06:40:33;19.20;99.90
12049;DHT22;6085;49.452;8.502;2023-05-07T06:44:35;19.30;99.90
12049;DHT22;6085;49.452;8.502;2023-05-07T06:48:38;19.10;99.90
12049;DHT22;6085;49.452;8.502;2023-05-07T06:52:40;19.30;99.90
12049;DHT22;6085;49.452;8.502;2023-05-07T06:56:43;20.00;99.90
12049;DHT22;6085;49.452;8.502;2023-05-07T07:00:45;20.60;99.90
12049;DHT22;6085;49.452;8.502;2023-05-07T07:04:48;20.80;99.90
12049;DHT22;6085;49.452;8.502;2023-05-07T07:08:50;21.30;99.90
12049;DHT22;6085;49.452;8.502;2023-05-07T07:12:52;21.60;99.90
12049;DHT22;6085;49.452;8.502;2023-05-07T07:16:54;21.70;99.90
12049;DHT22;6085;49.452;8.502;2023-05-07T07:20:58;22.20;99.90
12049;DHT22;6085;49.452;8.502;2023-05-07T07:25:00;23.00;99.90
12049;DHT22;6085;49.452;8.502;2023-05-07T07:29:02;23.50;99.90
12049;DHT22;6085;49.452;8.502;2023-05-07T07:33:04;23.90;99.90
12049;DHT22;6085;49.452;8.502;2023-05-07T07:37:08;24.00;99.90
12049;DHT22;6085;49.452;8.502;2023-05-07T07:41:10;23.80;99.90
12049;DHT22;6085;49.452;8.502;2023-05-07T07:45:11;23.30;99.90
12049;DHT22;6085;49.452;8.502;2023-05-07T07:49:14;23.30;99.90
12049;DHT22;6085;49.452;8.502;2023-05-07T07:53:17;23.60;99.90
12049;DHT22;6085;49.452;8.502;2023-05-07T07:57:19;23.50;99.90
12049;DHT22;6085;49.452;8.502;2023-05-07T08:01:21;23.70;99.90
12049;DHT22;6085;49.452;8.502;2023-05-07T08:05:24;25.00;99.90
12049;DHT22;6085;49.452;8.502;2023-05-07T08:09:27;25.50;99.90
12049;DHT22;6085;49.452;8.502;2023-05-07T08:13:29;25.40;99.90
12049;DHT22;6085;49.452;8.502;2023-05-07T08:17:31;25.30;99.90
12049;DHT22;6085;49.452;8.502;2023-05-07T08:21:34;25.50;99.90
12049;DHT22;6085;49.452;8.502;2023-05-07T08:25:37;26.50;99.90
12049;DHT22;6085;49.452;8.502;2023-05-07T08:29:39;26.00;99.90
12049;DHT22;6085;49.452;8.502;2023-05-07T08:33:41;24.90;99.90
12049;DHT22;6085;49.452;8.502;2023-05-07T08:37:43;24.00;99.90
12049;DHT22;6085;49.452;8.502;2023-05-07T08:41:48;23.40;99.90
12049;DHT22;6085;49.452;8.502;2023-05-07T08:45:54;22.70;99.90
12049;DHT22;6085;49.452;8.502;2023-05-07T08:49:56;22.60;99.90
12049;DHT22;6085;49.452;8.502;2023-05-07T08:53:58;25.20;99.90
12049;DHT22;6085;49.452;8.502;2023-05-07T08:58:03;26.10;99.90
12049;DHT22;6085;49.452;8.502;2023-05-07T09:02:07;26.00;99.90
12049;DHT22;6085;49.452;8.502;2023-05-07T09:06:11;29.00;99.90
12049;DHT22;6085;49.452;8.502;2023-05-07T09:10:13;30.40;98.90
12049;DHT22;6085;49.452;8.502;2023-05-07T09:14:17;30.20;97.10
12049;DHT22;6085;49.452;8.502;2023-05-07T09:18:19;30.10;96.30
12049;DHT22;6085;49.452;8.502;2023-05-07T09:22:21;29.10;96.40
12049;DHT22;6085;49.452;8.502;2023-05-07T09:26:24;28.30;97.00
12049;DHT22;6085;49.452;8.502;2023-05-07T09:30:29;27.00;98.60
12049;DHT22;6085;49.452;8.502;2023-05-07T09:34:31;26.10;99.90
12049;DHT22;6085;49.452;8.502;2023-05-07T09:38:33;26.80;99.30
12049;DHT22;6085;49.452;8.502;2023-05-07T09:42:35;28.00;97.70
12049;DHT22;6085;49.452;8.502;2023-05-07T09:46:39;29.40;96.50
12049;DHT22;6085;49.452;8.502;2023-05-07T09:50:49;30.00;94.10
12049;DHT22;6085;49.452;8.502;2023-05-07T09:54:52;29.70;94.00
12049;DHT22;6085;49.452;8.502;2023-05-07T09:58:57;30.50;92.70
12049;DHT22;6085;49.452;8.502;2023-05-07T10:03:01;31.30;91.00
12049;DHT22;6085;49.452;8.502;2023-05-07T10:07:04;32.60;86.20
12049;DHT22;6085;49.452;8.502;2023-05-07T10:11:07;33.20;83.10
12049;DHT22;6085;49.452;8.502;2023-05-07T10:15:10;34.30;79.00
12049;DHT22;6085;49.452;8.502;2023-05-07T10:19:14;34.80;74.40
12049;DHT22;6085;49.452;8.502;2023-05-07T10:23:20;35.30;71.00
12049;DHT22;6085;49.452;8.502;2023-05-07T10:27:24;35.80;67.60
12049;DHT22;6085;49.452;8.502;2023-05-07T10:31:53;35.80;66.70
12049;DHT22;6085;49.452;8.502;2023-05-07T10:36:00;36.40;63.60
12049;DHT22;6085;49.452;8.502;2023-05-07T10:40:06;36.60;61.40
12049;DHT22;6085;49.452;8.502;2023-05-07T10:44:08;36.30;60.50
12049;DHT22;6085;49.452;8.502;2023-05-07T10:48:12;36.70;60.20
12049;DHT22;6085;49.452;8.502;2023-05-07T10:52:17;36.90;60.20
12049;DHT22;6085;49.452;8.502;2023-05-07T10:56:26;36.60;58.70
12049;DHT22;6085;49.452;8.502;2023-05-07T11:00:43;36.30;58.80
12049;DHT22;6085;49.452;8.502;2023-05-07T11:05:21;36.20;59.00
12049;DHT22;6085;49.452;8.502;2023-05-07T11:09:24;36.40;58.40
12049;DHT22;6085;49.452;8.502;2023-05-07T11:13:42;36.30;57.60
12049;DHT22;6085;49.452;8.502;2023-05-07T11:18:02;35.60;58.90
12049;DHT22;6085;49.452;8.502;2023-05-07T11:22:05;34.70;59.50
12049;DHT22;6085;49.452;8.502;2023-05-07T11:26:41;32.90;61.80
12049;DHT22;6085;49.452;8.502;2023-05-07T11:30:44;31.80;65.00
12049;DHT22;6085;49.452;8.502;2023-05-07T11:34:47;32.70;63.50
12049;DHT22;6085;49.452;8.502;2023-05-07T11:38:52;33.60;62.20
12049;DHT22;6085;49.452;8.502;2023-05-07T11:42:56;33.50;60.50
12049;DHT22;6085;49.452;8.502;2023-05-07T11:46:58;32.80;61.60
12049;DHT22;6085;49.452;8.502;2023-05-07T11:51:01;32.50;61.90
12049;DHT22;6085;49.452;8.502;2023-05-07T11:55:04;32.40;62.40
12049;DHT22;6085;49.452;8.502;2023-05-07T11:59:07;31.50;62.30
12049;DHT22;6085;49.452;8.502;2023-05-07T12:03:09;31.10;64.50
12049;DHT22;6085;49.452;8.502;2023-05-07T12:07:11;31.30;64.80
12049;DHT22;6085;49.452;8.502;2023-05-07T12:11:15;31.00;62.90
12049;DHT22;6085;49.452;8.502;2023-05-07T12:15:24;30.90;62.10
12049;DHT22;6085;49.452;8.502;2023-05-07T12:19:26;31.20;64.30
12049;DHT22;6085;49.452;8.502;2023-05-07T12:23:28;30.70;66.10
12049;DHT22;6085;49.452;8.502;2023-05-07T12:27:30;30.80;68.20
12049;DHT22;6085;49.452;8.502;2023-05-07T12:31:34;31.00;64.90
12049;DHT22;6085;49.452;8.502;2023-05-07T12:35:39;30.80;62.80
12049;DHT22;6085;49.452;8.502;2023-05-07T12:39:44;30.20;64.90
12049;DHT22;6085;49.452;8.502;2023-05-07T12:43:56;30.20;65.90
12049;DHT22;6085;49.452;8.502;2023-05-07T12:48:02;30.50;65.40
12049;DHT22;6085;49.452;8.502;2023-05-07T12:52:05;30.70;64.70
12049;DHT22;6085;49.452;8.502;2023-05-07T12:56:07;30.40;65.50
12049;DHT22;6085;49.452;8.502;2023-05-07T13:00:10;29.60;65.20
12049;DHT22;6085;49.452;8.502;2023-05-07T13:04:13;28.50;67.90
12049;DHT22;6085;49.452;8.502;2023-05-07T13:08:27;27.90;68.70
12049;DHT22;6085;49.452;8.502;2023-05-07T13:12:30;27.60;71.00
12049;DHT22;6085;49.452;8.502;2023-05-07T13:16:31;27.70;70.80
12049;DHT22;6085;49.452;8.502;2023-05-07T13:20:35;27.60;71.50
12049;DHT22;6085;49.452;8.502;2023-05-07T13:24:37;27.60;72.50
12049;DHT22;6085;49.452;8.502;2023-05-07T13:28:42;27.50;72.80
12049;DHT22;6085;49.452;8.502;2023-05-07T13:32:44;27.40;72.80
12049;DHT22;6085;49.452;8.502;2023-05-07T13:36:49;27.10;74.50
12049;DHT22;6085;49.452;8.502;2023-05-07T13:40:52;26.80;75.80
12049;DHT22;6085;49.452;8.502;2023-05-07T13:44:54;26.60;76.40
12049;DHT22;6085;49.452;8.502;2023-05-07T13:48:56;26.20;78.10
12049;DHT22;6085;49.452;8.502;2023-05-07T13:52:59;25.70;83.40
12049;DHT22;6085;49.452;8.502;2023-05-07T13:57:01;24.80;89.60
12049;DHT22;6085;49.452;8.502;2023-05-07T14:01:03;24.20;91.50
12049;DHT22;6085;49.452;8.502;2023-05-07T14:05:06;23.80;95.90
12049;DHT22;6085;49.452;8.502;2023-05-07T14:09:09;23.30;99.00
12049;DHT22;6085;49.452;8.502;2023-05-07T14:13:13;22.90;99.90
12049;DHT22;6085;49.452;8.502;2023-05-07T14:17:16;22.20;99.90
12049;DHT22;6085;49.452;8.502;2023-05-07T14:21:17;21.30;99.90
12049;DHT22;6085;49.452;8.502;2023-05-07T14:25:21;20.60;99.90
12049;DHT22;6085;49.452;8.502;2023-05-07T14:29:23;20.10;99.90
12049;DHT22;6085;49.452;8.502;2023-05-07T14:33:24;19.90;99.90
12049;DHT22;6085;49.452;8.502;2023-05-07T14:37:26;19.70;99.90
12049;DHT22;6085;49.452;8.502;2023-05-07T14:41:33;19.40;99.90
12049;DHT22;6085;49.452;8.502;2023-05-07T14:45:35;18.90;99.90
12049;DHT22;6085;49.452;8.502;2023-05-07T14:49:40;18.30;99.90
12049;DHT22;6085;49.452;8.502;2023-05-07T14:53:42;17.60;99.90
12049;DHT22;6085;49.452;8.502;2023-05-07T14:57:46;17.00;99.90
12049;DHT22;6085;49.452;8.502;2023-05-07T15:01:48;16.60;99.90
12049;DHT22;6085;49.452;8.502;2023-05-07T15:05:50;16.50;99.90
12049;DHT22;6085;49.452;8.502;2023-05-07T15:09:53;16.30;99.90
12049;DHT22;6085;49.452;8.502;2023-05-07T15:13:57;16.00;99.90
12049;DHT22;6085;49.452;8.502;2023-05-07T15:17:58;15.80;99.90
12049;DHT22;6085;49.452;8.502;2023-05-07T15:22:01;15.70;99.90
12049;DHT22;6085;49.452;8.502;2023-05-07T15:26:04;15.70;99.90
12049;DHT22;6085;49.452;8.502;2023-05-07T15:30:10;15.60;99.90
12049;DHT22;6085;49.452;8.502;2023-05-07T15:34:13;15.30;99.90
12049;DHT22;6085;49.452;8.502;2023-05-07T15:38:15;15.20;99.90
12049;DHT22;6085;49.452;8.502;2023-05-07T15:42:17;15.10;99.90
12049;DHT22;6085;49.452;8.502;2023-05-07T15:46:22;15.10;99.90
12049;DHT22;6085;49.452;8.502;2023-05-07T15:50:25;15.00;99.90
12049;DHT22;6085;49.452;8.502;2023-05-07T15:54:26;14.90;99.90
12049;DHT22;6085;49.452;8.502;2023-05-07T15:58:28;14.80;99.90
12049;DHT22;6085;49.452;8.502;2023-05-07T16:02:32;14.80;99.90
12049;DHT22;6085;49.452;8.502;2023-05-07T16:06:34;14.70;99.90
12049;DHT22;6085;49.452;8.502;2023-05-07T16:10:36;14.70;99.90
12049;DHT22;6085;49.452;8.502;2023-05-07T16:14:38;14.60;99.90
12049;DHT22;6085;49.452;8.502;2023-05-07T16:18:41;14.60;99.90
12049;DHT22;6085;49.452;8.502;2023-05-07T16:22:43;14.60;99.90
12049;DHT22;6085;49.452;8.502;2023-05-07T16:26:45;14.60;99.90
12049;DHT22;6085;49.452;8.502;2023-05-07T16:30:47;14.60;99.90
12049;DHT22;6085;49.452;8.502;2023-05-07T16:34:51;14.60;99.90
12049;DHT22;6085;49.452;8.502;2023-05-07T16:38:53;14.60;99.90
12049;DHT22;6085;49.452;8.502;2023-05-07T16:42:55;14.60;99.90
12049;DHT22;6085;49.452;8.502;2023-05-07T16:46:57;14.60;99.90
12049;DHT22;6085;49.452;8.502;2023-05-07T16:51:00;14.60;99.90
12049;DHT22;6085;49.452;8.502;2023-05-07T16:55:04;14.60;99.90
12049;DHT22;6085;49.452;8.502;2023-05-07T16:59:09;14.60;99.90
12049;DHT22;6085;49.452;8.502;2023-05-07T17:03:14;14.60;99.90
12049;DHT22;6085;49.452;8.502;2023-05-07T17:07:18;14.60;99.90
12049;DHT22;6085;49.452;8.502;2023-05-07T17:11:20;14.50;99.90
12049;DHT22;6085;49.452;8.502;2023-05-07T17:15:22;14.60;99.90
12049;DHT22;6085;49.452;8.502;2023-05-07T17:19:24;14.50;99.90
12049;DHT22;6085;49.452;8.502;2023-05-07T17:23:27;14.50;99.90
12049;DHT22;6085;49.452;8.502;2023-05-07T17:27:29;14.50;99.90
12049;DHT22;6085;49.452;8.502;2023-05-07T17:31:32;14.50;99.90
12049;DHT22;6085;49.452;8.502;2023-05-07T17:35:34;14.60;99.90
12049;DHT22;6085;49.452;8.502;2023-05-07T17:39:37;14.70;99.90
12049;DHT22;6085;49.452;8.502;2023-05-07T17:43:39;14.70;99.90
12049;DHT22;6085;49.452;8.502;2023-05-07T17:47:41;14.70;99.90
12049;DHT22;6085;49.452;8.502;2023-05-07T17:51:43;14.80;99.90
12049;DHT22;6085;49.452;8.502;2023-05-07T17:55:47;14.80;99.90
12049;DHT22;6085;49.452;8.502;2023-05-07T17:59:49;14.80;99.90
12049;DHT22;6085;49.452;8.502;2023-05-07T18:03:51;14.90;99.90
12049;DHT22;6085;49.452;8.502;2023-05-07T18:07:53;14.90;99.90
12049;DHT22;6085;49.452;8.502;2023-05-07T18:11:56;14.90;99.90
12049;DHT22;6085;49.452;8.502;2023-05-07T18:15:59;14.90;99.90
12049;DHT22;6085;49.452;8.502;2023-05-07T18:20:01;14.90;99.90
12049;DHT22;6085;49.452;8.502;2023-05-07T18:24:04;14.90;99.90
12049;DHT22;6085;49.452;8.502;2023-05-07T18:28:10;14.90;99.90
12049;DHT22;6085;49.452;8.502;2023-05-07T18:32:12;14.80;99.90
12049;DHT22;6085;49.452;8.502;2023-05-07T18:36:14;14.70;99.90
12049;DHT22;6085;49.452;8.502;2023-05-07T18:40:16;14.70;99.90
12049;DHT22;6085;49.452;8.502;2023-05-07T18:44:22;14.70;99.90
12049;DHT22;6085;49.452;8.502;2023-05-07T18:48:24;14.80;99.90
12049;DHT22;6085;49.452;8.502;2023-05-07T18:52:26;14.80;99.90
12049;DHT22;6085;49.452;8.502;2023-05-07T18:56:28;14.70;99.90
12049;DHT22;6085;49.452;8.502;2023-05-07T19:00:33;14.80;99.90
12049;DHT22;6085;49.452;8.502;2023-05-07T19:04:35;14.70;99.90
12049;DHT22;6085;49.452;8.502;2023-05-07T19:08:37;14.70;99.90
12049;DHT22;6085;49.452;8.502;2023-05-07T19:12:40;14.60;99.90
12049;DHT22;6085;49.452;8.502;2023-05-07T19:16:43;14.60;99.90
12049;DHT22;6085;49.452;8.502;2023-05-07T19:20:46;14.50;99.90
12049;DHT22;6085;49.452;8.502;2023-05-07T19:24:48;14.50;99.90
12049;DHT22;6085;49.452;8.502;2023-05-07T19:28:50;14.50;99.90
12049;DHT22;6085;49.452;8.502;2023-05-07T19:32:53;14.50;99.90
12049;DHT22;6085;49.452;8.502;2023-05-07T19:36:55;14.50;99.90
12049;DHT22;6085;49.452;8.502;2023-05-07T19:40:57;14.40;99.90
12049;DHT22;6085;49.452;8.502;2023-05-07T19:45:00;14.50;99.90
12049;DHT22;6085;49.452;8.502;2023-05-07T19:49:05;14.50;99.90
12049;DHT22;6085;49.452;8.502;2023-05-07T19:53:07;14.50;99.90
12049;DHT22;6085;49.452;8.502;2023-05-07T19:57:09;14.60;99.90
12049;DHT22;6085;49.452;8.502;2023-05-07T20:01:10;14.60;99.90
12049;DHT22;6085;49.452;8.502;2023-05-07T20:05:14;14.70;99.90
12049;DHT22;6085;49.452;8.502;2023-05-07T20:09:16;14.70;99.90
12049;DHT22;6085;49.452;8.502;2023-05-07T20:13:18;14.60;99.90
12049;DHT22;6085;49.452;8.502;2023-05-07T20:17:20;14.60;99.90
12049;DHT22;6085;49.452;8.502;2023-05-07T20:21:23;14.60;99.90
12049;DHT22;6085;49.452;8.502;2023-05-07T20:25:26;14.60;99.90
12049;DHT22;6085;49.452;8.502;2023-05-07T20:29:28;14.60;99.90
12049;DHT22;6085;49.452;8.502;2023-05-07T20:33:30;14.60;99.90
12049;DHT22;6085;49.452;8.502;2023-05-07T20:37:34;14.60;99.90
12049;DHT22;6085;49.452;8.502;2023-05-07T20:41:36;14.60;99.90
12049;DHT22;6085;49.452;8.502;2023-05-07T20:45:38;14.70;99.90
12049;DHT22;6085;49.452;8.502;2023-05-07T20:49:40;14.70;99.90
12049;DHT22;6085;49.452;8.502;2023-05-07T20:53:43;14.60;99.90
12049;DHT22;6085;49.452;8.502;2023-05-07T20:57:45;14.60;99.90
12049;DHT22;6085;49.452;8.502;2023-05-07T21:01:47;14.60;99.90
12049;DHT22;6085;49.452;8.502;2023-05-07T21:05:50;14.60;99.90
12049;DHT22;6085;49.452;8.502;2023-05-07T21:09:54;14.70;99.90
12049;DHT22;6085;49.452;8.502;2023-05-07T21:13:56;14.70;99.90
12049;DHT22;6085;49.452;8.502;2023-05-07T21:17:58;14.60;99.90
12049;DHT22;6085;49.452;8.502;2023-05-07T21:22:00;14.60;99.90
12049;DHT22;6085;49.452;8.502;2023-05-07T21:26:03;14.50;99.90
12049;DHT22;6085;49.452;8.502;2023-05-07T21:30:06;14.50;99.90
12049;DHT22;6085;49.452;8.502;2023-05-07T21:34:08;14.50;99.90
12049;DHT22;6085;49.452;8.502;2023-05-07T21:38:10;14.50;99.90
12049;DHT22;6085;49.452;8.502;2023-05-07T21:42:14;14.50;99.90
12049;DHT22;6085;49.452;8.502;2023-05-07T21:46:16;14.50;99.90
12049;DHT22;6085;49.452;8.502;2023-05-07T21:50:18;14.50;99.90
12049;DHT22;6085;49.452;8.502;2023-05-07T21:54:20;14.50;99.90
12049;DHT22;6085;49.452;8.502;2023-05-07T21:58:24;14.50;99.90
12049;DHT22;6085;49.452;8.502;2023-05-07T22:02:26;14.50;99.90
12049;DHT22;6085;49.452;8.502;2023-05-07T22:06:28;14.50;99.90
12049;DHT22;6085;49.452;8.502;2023-05-07T22:10:30;14.60;99.90
12049;DHT22;6085;49.452;8.502;2023-05-07T22:14:34;14.60;99.90
12049;DHT22;6085;49.452;8.502;2023-05-07T22:18:36;14.60;99.90
12049;DHT22;6085;49.452;8.502;2023-05-07T22:22:47;14.50;99.90
12049;DHT22;6085;49.452;8.502;2023-05-07T22:26:49;14.50;99.90
12049;DHT22;6085;49.452;8.502;2023-05-07T22:30:52;14.50;99.90
12049;DHT22;6085;49.452;8.502;2023-05-07T22:34:54;14.50;99.90
12049;DHT22;6085;49.452;8.502;2023-05-07T22:38:56;14.50;99.90
12049;DHT22;6085;49.452;8.502;2023-05-07T22:42:58;14.50;99.90
12049;DHT22;6085;49.452;8.502;2023-05-07T22:47:02;14.50;99.90
12049;DHT22;6085;49.452;8.502;2023-05-07T22:51:04;14.50;99.90
12049;DHT22;6085;49.452;8.502;2023-05-07T22:55:07;14.50;99.90
12049;DHT22;6085;49.452;8.502;2023-05-07T22:59:09;14.50;99.90
12049;DHT22;6085;49.452;8.502;2023-05-07T23:03:12;14.50;99.90
12049;DHT22;6085;49.452;8.502;2023-05-07T23:07:14;14.50;99.90
12049;DHT22;6085;49.452;8.502;2023-05-07T23:11:16;14.50;99.90
12049;DHT22;6085;49.452;8.502;2023-05-07T23:15:18;14.50;99.90
12049;DHT22;6085;49.452;8.502;2023-05-07T23:19:22;14.40;99.90
12049;DHT22;6085;49.452;8.502;2023-05-07T23:23:24;14.40;99.90
12049;DHT22;6085;49.452;8.502;2023-05-07T23:27:30;14.50;99.90
12049;DHT22;6085;49.452;8.502;2023-05-07T23:31:32;14.40;99.90
12049;DHT22;6085;49.452;8.502;2023-05-07T23:35:35;14.40;99.90
12049;DHT22;6085;49.452;8.502;2023-05-07T23:39:37;14.40;99.90
12049;DHT22;6085;49.452;8.502;2023-05-07T23:43:39;14.40;99.90
12049;DHT22;6085;49.452;8.502;2023-05-07T23:47:41;14.40;99.90
12049;DHT22;6085;49.452;8.502;2023-05-07T23:51:44;14.40;99.90
12049;DHT22;6085;49.452;8.502;2023-05-07T23:55:46;14.40;99.90
12049;DHT22;6085;49.452;8.502;2023-05-07T23:59:48;14.40;99.90
